Time;durP1;ratioP1;P1;durP2;ratioP2;P2;SDS_P1;SDS_P2;PMS_P1;PMS_P2;Temp;Humidity;BMP_temperature;BMP_pressure;BME280_temperature;BME280_humidity;BME280_pressure;Samples;Min_cycle;Max_cycle;Signal;HPM_P1;HPM_P2
2022/08/03 00:01:35;;;;;;;3.17;2.05;;;19.90;98.80;;;;;;4953944;28;20061;-61
2022/08/03 00:04:01;;;;;;;6.50;2.45;;;19.90;99.50;;;;;;4955602;28;20074;-61
2022/08/03 00:06:27;;;;;;;3.38;2.63;;;19.90;99.90;;;;;;4954011;28;20031;-61
2022/08/03 00:08:52;;;;;;;3.45;2.33;;;19.90;99.90;;;;;;4953994;29;20059;-61
2022/08/03 00:11:19;;;;;;;2.85;2.33;;;19.80;99.90;;;;;;4953755;29;20035;-61
2022/08/03 00:13:44;;;;;;;2.92;1.92;;;19.80;99.90;;;;;;4954471;29;20036;-61
2022/08/03 00:16:10;;;;;;;2.75;2.10;;;19.80;99.90;;;;;;4953877;29;20034;-60
2022/08/03 00:18:36;;;;;;;3.13;2.03;;;19.70;99.90;;;;;;4954969;28;20035;-61
2022/08/03 00:21:03;;;;;;;4.78;2.00;;;19.70;99.90;;;;;;4953758;29;20027;-61
2022/08/03 00:23:28;;;;;;;9.10;2.63;;;19.60;99.90;;;;;;4954406;29;20030;-61
2022/08/03 00:25:54;;;;;;;5.40;2.33;;;19.40;99.90;;;;;;4953757;29;20122;-61
2022/08/03 00:28:20;;;;;;;4.68;2.15;;;19.30;99.90;;;;;;4954918;28;20038;-61
2022/08/03 00:30:46;;;;;;;2.72;2.00;;;19.30;99.90;;;;;;4954616;29;20038;-61
2022/08/03 00:33:11;;;;;;;3.50;2.15;;;19.30;99.90;;;;;;4953659;29;20031;-61
2022/08/03 00:35:37;;;;;;;3.15;2.25;;;19.40;99.90;;;;;;4953710;29;20027;-61
2022/08/03 00:38:03;;;;;;;6.28;2.38;;;19.40;99.90;;;;;;4954831;28;20024;-60
2022/08/03 00:40:29;;;;;;;4.30;2.10;;;19.40;99.90;;;;;;4954735;29;20063;-59
2022/08/03 00:42:57;;;;;;;5.05;2.65;;;19.30;99.90;;;;;;4954751;28;20059;-61
2022/08/03 00:45:32;;;;;;;4.00;2.38;;;19.30;99.90;;;;;;4953576;29;20019;-61
2022/08/03 00:47:58;;;;;;;4.63;2.30;;;19.30;99.90;;;;;;4954778;28;20034;-61
2022/08/03 00:50:29;;;;;;;5.60;2.50;;;19.30;99.90;;;;;;4953879;28;20031;-61
2022/08/03 00:52:57;;;;;;;3.33;2.25;;;19.20;99.90;;;;;;4956743;28;20035;-61
2022/08/03 00:55:24;;;;;;;3.42;2.53;;;19.20;99.90;;;;;;4958323;28;20110;-61
2022/08/03 00:57:50;;;;;;;4.95;2.40;;;19.20;99.90;;;;;;4958070;29;20062;-61
2022/08/03 01:00:19;;;;;;;2.42;2.05;;;19.20;99.90;;;;;;4956816;29;20036;-61
2022/08/03 01:02:45;;;;;;;4.90;2.65;;;19.10;99.90;;;;;;4958197;28;20023;-61
2022/08/03 01:05:11;;;;;;;6.43;2.47;;;19.10;99.90;;;;;;4957660;29;20024;-61
2022/08/03 01:08:02;;;;;;;6.57;2.47;;;19.00;99.90;;;;;;4956754;29;20082;-61
2022/08/03 01:10:31;;;;;;;2.40;2.20;;;19.00;99.90;;;;;;4958004;28;20110;-61
2022/08/03 01:12:58;;;;;;;4.13;2.75;;;18.90;99.90;;;;;;4957459;29;20024;-61
2022/08/03 01:15:45;;;;;;;3.42;2.40;;;18.90;99.90;;;;;;4957816;28;20038;-60
2022/08/03 01:18:19;;;;;;;4.18;1.88;;;18.90;99.90;;;;;;4957372;29;20114;-61
2022/08/03 01:20:50;;;;;;;2.78;2.55;;;18.80;99.90;;;;;;4958145;28;20031;-60
2022/08/03 01:23:30;;;;;;;4.97;2.60;;;18.80;99.90;;;;;;4958077;28;20022;-61
2022/08/03 01:26:08;;;;;;;5.45;2.83;;;18.70;99.90;;;;;;4958086;28;20023;-61
2022/08/03 01:29:02;;;;;;;3.97;2.55;;;18.60;99.90;;;;;;4957717;28;20020;-61
2022/08/03 01:31:40;;;;;;;5.15;2.75;;;18.60;99.90;;;;;;4956505;29;20155;-61
2022/08/03 01:34:10;;;;;;;2.78;2.30;;;18.50;99.90;;;;;;4957930;28;20027;-61
2022/08/03 01:36:42;;;;;;;5.22;2.60;;;18.50;99.90;;;;;;4956648;29;20545;-61
2022/08/03 01:39:31;;;;;;;2.72;2.33;;;18.40;99.90;;;;;;4956693;29;20034;-61
2022/08/03 01:42:04;;;;;;;5.57;2.58;;;18.40;99.90;;;;;;4958008;28;20386;-61
2022/08/03 01:44:37;;;;;;;3.65;2.47;;;18.40;99.90;;;;;;4957406;28;20023;-61
2022/08/03 01:47:03;;;;;;;4.32;2.60;;;18.40;99.90;;;;;;4957053;29;20031;-61
2022/08/03 01:49:35;;;;;;;9.98;2.60;;;18.30;99.90;;;;;;4957267;28;20030;-61
2022/08/03 01:52:03;;;;;;;3.92;2.33;;;18.30;99.90;;;;;;4957717;28;20089;-60
2022/08/03 01:54:29;;;;;;;4.85;2.28;;;18.30;99.90;;;;;;4955896;29;20050;-61
2022/08/03 01:56:57;;;;;;;2.65;2.45;;;18.20;99.90;;;;;;4955938;29;20062;-61
2022/08/03 01:59:25;;;;;;;3.75;2.20;;;18.20;99.90;;;;;;4956803;28;20050;-61
2022/08/03 02:01:52;;;;;;;5.88;2.58;;;18.20;99.90;;;;;;4955711;29;20023;-61
2022/08/03 02:04:19;;;;;;;5.68;3.08;;;18.10;99.90;;;;;;4956202;28;20081;-61
2022/08/03 02:06:47;;;;;;;6.10;2.80;;;18.10;99.90;;;;;;4955691;29;20027;-59
2022/08/03 02:09:15;;;;;;;6.18;2.55;;;18.00;99.90;;;;;;4957335;28;20352;-61
2022/08/03 02:11:42;;;;;;;4.13;2.70;;;18.00;99.90;;;;;;4955916;28;20033;-61
2022/08/03 02:14:09;;;;;;;2.72;2.38;;;17.90;99.90;;;;;;4956327;29;20066;-59
2022/08/03 02:16:35;;;;;;;5.30;2.65;;;17.90;99.90;;;;;;4955489;29;20028;-61
2022/08/03 02:19:04;;;;;;;3.17;2.83;;;17.90;99.90;;;;;;4956638;28;20031;-61
2022/08/03 02:21:34;;;;;;;6.43;2.70;;;17.90;99.90;;;;;;4956516;28;20031;-61
2022/08/03 02:24:00;;;;;;;3.00;2.63;;;17.90;99.90;;;;;;4956831;28;20535;-61
2022/08/03 02:26:29;;;;;;;3.60;2.85;;;17.80;99.90;;;;;;4955315;29;20031;-61
2022/08/03 02:28:58;;;;;;;4.57;3.30;;;17.80;99.90;;;;;;4955120;29;20030;-59
2022/08/03 02:31:28;;;;;;;3.13;2.60;;;17.80;99.90;;;;;;4955254;29;20067;-61
2022/08/03 02:33:59;;;;;;;6.07;2.58;;;17.80;99.90;;;;;;4956758;28;20027;-61
2022/08/03 02:36:28;;;;;;;8.07;3.35;;;17.80;99.90;;;;;;4956845;28;20035;-60
2022/08/03 02:38:57;;;;;;;4.82;3.40;;;17.70;99.90;;;;;;4955074;29;20031;-60
2022/08/03 02:41:28;;;;;;;3.97;2.83;;;17.70;99.90;;;;;;4956501;28;20106;-61
2022/08/03 02:44:02;;;;;;;5.50;2.78;;;17.70;99.90;;;;;;4955041;29;20086;-61
2022/08/03 02:46:31;;;;;;;3.72;3.03;;;17.60;99.90;;;;;;4955542;29;20035;-61
2022/08/03 02:49:00;;;;;;;6.72;3.50;;;17.60;99.90;;;;;;4956099;28;20189;-60
2022/08/03 02:51:29;;;;;;;6.43;3.17;;;17.60;99.90;;;;;;4954977;29;20117;-61
2022/08/03 02:53:56;;;;;;;3.70;2.90;;;17.60;99.90;;;;;;4956322;28;20019;-61
2022/08/03 02:56:24;;;;;;;5.28;2.97;;;17.60;99.90;;;;;;4955069;28;20027;-61
2022/08/03 02:58:52;;;;;;;4.90;2.58;;;17.50;99.90;;;;;;4955007;29;20070;-61
2022/08/03 03:01:25;;;;;;;4.70;3.00;;;17.50;99.90;;;;;;4955509;29;20039;-61
2022/08/03 03:03:53;;;;;;;4.47;2.53;;;17.40;99.90;;;;;;4956172;28;20505;-61
2022/08/03 03:06:20;;;;;;;5.03;2.92;;;17.30;99.90;;;;;;4954571;29;20023;-61
2022/08/03 03:08:46;;;;;;;8.38;3.05;;;17.30;99.90;;;;;;4955662;28;20501;-61
2022/08/03 03:11:13;;;;;;;6.72;2.90;;;17.30;99.90;;;;;;4954557;29;20027;-61
2022/08/03 03:13:41;;;;;;;4.95;2.83;;;17.30;99.90;;;;;;4954972;29;20031;-61
2022/08/03 03:16:07;;;;;;;3.90;2.90;;;17.30;99.90;;;;;;4954489;28;20071;-59
2022/08/03 03:18:34;;;;;;;4.45;2.63;;;17.30;99.90;;;;;;4954444;28;20039;-61
2022/08/03 03:21:02;;;;;;;3.92;3.00;;;17.30;99.90;;;;;;4954289;29;20490;-61
2022/08/03 03:23:29;;;;;;;2.67;2.47;;;17.20;99.90;;;;;;4955429;28;20047;-59
2022/08/03 03:25:57;;;;;;;4.53;3.15;;;17.20;99.90;;;;;;4954719;29;20027;-61
2022/08/03 03:28:23;;;;;;;5.40;3.25;;;17.20;99.90;;;;;;4954131;28;20114;-61
2022/08/03 03:30:49;;;;;;;3.50;3.10;;;17.20;99.90;;;;;;4955483;28;20023;-61
2022/08/03 03:33:16;;;;;;;4.38;3.40;;;17.10;99.90;;;;;;4954141;28;20034;-59
2022/08/03 03:35:43;;;;;;;6.38;4.20;;;17.10;99.90;;;;;;4955316;28;20031;-61
2022/08/03 03:38:09;;;;;;;5.10;2.75;;;17.10;99.90;;;;;;4955576;28;20037;-60
2022/08/03 03:40:35;;;;;;;3.35;2.90;;;17.10;99.90;;;;;;4955793;28;20106;-60
2022/08/03 03:43:02;;;;;;;6.10;4.38;;;17.10;99.90;;;;;;4954105;29;20027;-59
2022/08/03 03:45:29;;;;;;;8.60;5.40;;;17.00;99.90;;;;;;4954364;28;20153;-61
2022/08/03 03:47:55;;;;;;;6.30;3.13;;;17.00;99.90;;;;;;4955543;28;20027;-60
2022/08/03 03:50:22;;;;;;;4.95;3.08;;;17.00;99.90;;;;;;4955129;28;20094;-61
2022/08/03 03:52:48;;;;;;;5.72;3.35;;;17.00;99.90;;;;;;4954185;29;20031;-59
2022/08/03 03:55:17;;;;;;;4.88;3.08;;;17.00;99.90;;;;;;4953960;29;20039;-59
2022/08/03 03:57:43;;;;;;;10.38;3.35;;;16.90;99.90;;;;;;4954081;28;20023;-59
2022/08/03 04:00:11;;;;;;;4.18;3.08;;;16.90;99.90;;;;;;4954151;29;20078;-61
2022/08/03 04:02:38;;;;;;;4.78;2.90;;;16.90;99.90;;;;;;4953960;29;20030;-57
2022/08/03 04:11:06;;;;;;;6.45;3.58;;;16.80;99.90;;;;;;4955257;28;20446;-61
2022/08/03 04:13:42;;;;;;;4.68;3.30;;;16.80;99.90;;;;;;4954127;29;20030;-59
2022/08/03 04:16:12;;;;;;;6.18;2.80;;;16.90;99.90;;;;;;4955178;28;20027;-58
2022/08/03 04:18:40;;;;;;;6.93;3.47;;;17.10;99.90;;;;;;4953855;29;20046;-59
2022/08/03 04:21:10;;;;;;;4.55;3.20;;;17.20;99.90;;;;;;4954545;29;20086;-60
2022/08/03 04:23:39;;;;;;;3.05;2.63;;;17.30;99.90;;;;;;4954629;29;20027;-61
2022/08/03 04:26:08;;;;;;;5.68;3.25;;;17.40;99.90;;;;;;4954914;28;20023;-61
2022/08/03 04:28:36;;;;;;;5.03;3.28;;;17.60;99.90;;;;;;4956804;29;20159;-60
2022/08/03 04:31:03;;;;;;;3.72;3.30;;;17.80;99.90;;;;;;4959012;28;20042;-59
2022/08/03 04:33:32;;;;;;;4.95;2.90;;;18.00;99.90;;;;;;4958208;29;20027;-61
2022/08/03 04:35:59;;;;;;;5.70;3.38;;;18.20;99.90;;;;;;4957400;29;20023;-61
2022/08/03 04:38:28;;;;;;;4.20;3.25;;;18.30;99.90;;;;;;4958483;28;20034;-58
2022/08/03 04:40:55;;;;;;;4.45;3.35;;;18.40;99.90;;;;;;4957353;28;20394;-61
2022/08/03 04:43:22;;;;;;;5.43;3.60;;;18.80;99.90;;;;;;4957260;29;20031;-61
2022/08/03 04:45:49;;;;;;;3.70;3.40;;;19.20;99.90;;;;;;4958465;28;20037;-61
2022/08/03 04:48:16;;;;;;;5.80;3.08;;;19.50;99.90;;;;;;4957381;28;20078;-61
2022/08/03 04:50:42;;;;;;;2.75;2.50;;;19.80;99.90;;;;;;4958459;28;20106;-61
2022/08/03 04:53:08;;;;;;;5.15;3.65;;;20.20;99.90;;;;;;4958351;28;20028;-61
2022/08/03 04:55:34;;;;;;;5.10;3.10;;;20.50;99.90;;;;;;4958490;28;20082;-61
2022/08/03 04:58:01;;;;;;;6.28;3.20;;;20.90;99.90;;;;;;4957467;29;20078;-61
2022/08/03 05:00:28;;;;;;;3.08;2.78;;;21.20;99.90;;;;;;4956883;28;20035;-62
2022/08/03 05:02:54;;;;;;;3.70;2.75;;;21.60;99.90;;;;;;4956889;29;20478;-62
2022/08/03 05:05:20;;;;;;;4.47;3.10;;;21.90;99.90;;;;;;4956866;29;20030;-62
2022/08/03 05:07:46;;;;;;;6.15;3.47;;;22.40;99.90;;;;;;4957915;28;20031;-60
2022/08/03 05:10:12;;;;;;;7.32;3.40;;;22.80;99.90;;;;;;4958273;28;20096;-61
2022/08/03 05:12:39;;;;;;;4.70;2.83;;;23.10;99.90;;;;;;4958017;28;20066;-62
2022/08/03 05:15:05;;;;;;;4.40;3.10;;;23.40;99.90;;;;;;4957056;29;20027;-62
2022/08/03 05:17:32;;;;;;;5.43;3.03;;;23.80;99.90;;;;;;4956703;28;20031;-62
2022/08/03 05:19:58;;;;;;;7.93;2.75;;;24.00;99.90;;;;;;4958058;28;20038;-63
2022/08/03 05:22:24;;;;;;;3.30;3.00;;;24.40;99.90;;;;;;4956620;28;20162;-58
2022/08/03 05:24:50;;;;;;;5.63;2.90;;;24.70;99.90;;;;;;4956502;29;20110;-60
2022/08/03 05:27:18;;;;;;;5.90;3.15;;;24.90;99.90;;;;;;4957363;29;20019;-60
2022/08/03 05:29:45;;;;;;;5.32;3.22;;;25.20;99.90;;;;;;4956436;29;20019;-60
2022/08/03 05:32:10;;;;;;;4.78;2.63;;;25.50;99.90;;;;;;4957577;28;20034;-60
2022/08/03 05:34:36;;;;;;;5.97;2.80;;;25.80;99.90;;;;;;4956654;29;20032;-59
2022/08/03 05:37:02;;;;;;;3.50;3.15;;;26.10;99.90;;;;;;4957538;28;20023;-60
2022/08/03 05:39:27;;;;;;;3.58;3.20;;;26.40;99.90;;;;;;4955382;28;20118;-60
2022/08/03 05:42:09;;;;;;;3.50;3.20;;;26.60;99.90;;;;;;4957685;28;20058;-60
2022/08/03 05:44:37;;;;;;;3.80;2.88;;;27.00;99.90;;;;;;4956799;29;20367;-62
2022/08/03 05:47:03;;;;;;;4.63;3.22;;;27.30;99.90;;;;;;4957453;28;20070;-62
2022/08/03 05:49:29;;;;;;;5.63;2.80;;;27.70;99.90;;;;;;4957189;28;20398;-61
2022/08/03 05:51:55;;;;;;;5.82;3.38;;;28.00;99.90;;;;;;4956595;29;20099;-62
2022/08/03 05:54:20;;;;;;;3.08;2.65;;;28.20;99.90;;;;;;4957166;29;20031;-62
2022/08/03 05:56:46;;;;;;;5.07;3.08;;;28.50;99.80;;;;;;4957759;28;20027;-62
2022/08/03 05:59:11;;;;;;;5.40;3.17;;;29.00;98.30;;;;;;4957151;28;20035;-61
2022/08/03 06:01:37;;;;;;;3.90;3.30;;;29.40;97.70;;;;;;4957145;28;20023;-62
2022/08/03 06:04:03;;;;;;;8.23;3.83;;;29.80;95.60;;;;;;4955836;29;20038;-62
2022/08/03 06:06:28;;;;;;;7.38;3.55;;;30.00;93.90;;;;;;4957049;28;20445;-62
2022/08/03 06:08:54;;;;;;;5.55;2.85;;;30.10;93.40;;;;;;4957325;28;20031;-61
2022/08/03 06:11:19;;;;;;;6.05;4.88;;;30.40;93.00;;;;;;4955700;29;20030;-59
2022/08/03 06:13:45;;;;;;;8.15;3.00;;;30.80;92.10;;;;;;4956014;29;20035;-61
2022/08/03 06:16:11;;;;;;;7.45;3.20;;;30.80;91.40;;;;;;4956914;28;20023;-62
2022/08/03 06:18:37;;;;;;;3.65;2.97;;;31.20;90.80;;;;;;4957239;28;20075;-61
2022/08/03 06:21:03;;;;;;;3.00;2.70;;;31.60;89.60;;;;;;4955508;29;20032;-62
2022/08/03 06:23:29;;;;;;;6.32;3.10;;;31.90;87.60;;;;;;4956685;28;20024;-62
2022/08/03 06:25:54;;;;;;;5.45;4.07;;;32.00;86.80;;;;;;4955420;29;20023;-61
2022/08/03 06:28:21;;;;;;;5.57;4.78;;;32.30;84.90;;;;;;4957108;28;20414;-60
2022/08/03 06:30:46;;;;;;;4.57;3.35;;;32.30;84.90;;;;;;4955687;29;20398;-62
2022/08/03 06:33:12;;;;;;;7.03;2.78;;;32.70;81.60;;;;;;4955707;29;20027;-62
2022/08/03 06:35:38;;;;;;;6.72;2.83;;;33.20;80.80;;;;;;4956538;28;20082;-62
2022/08/03 06:38:03;;;;;;;3.47;2.65;;;33.70;78.40;;;;;;4956482;28;20066;-62
2022/08/03 06:40:32;;;;;;;4.60;2.72;;;34.00;78.20;;;;;;4955353;29;20035;-62
2022/08/03 06:43:00;;;;;;;3.03;2.72;;;34.30;76.20;;;;;;4956580;28;20023;-62
2022/08/03 06:45:27;;;;;;;6.38;3.05;;;34.90;74.40;;;;;;4955741;29;20031;-62
2022/08/03 06:48:08;;;;;;;3.75;3.03;;;35.30;72.00;;;;;;4956855;28;20063;-61
2022/08/03 06:50:36;;;;;;;5.53;3.03;;;35.40;72.70;;;;;;4955977;28;20059;-62
2022/08/03 06:53:02;;;;;;;2.72;2.40;;;35.90;70.00;;;;;;4954982;28;20065;-62
2022/08/03 06:55:28;;;;;;;5.43;3.65;;;35.60;70.30;;;;;;4955498;28;20039;-63
2022/08/03 06:57:55;;;;;;;7.80;3.92;;;35.70;69.20;;;;;;4954846;29;20089;-61
2022/08/03 07:00:20;;;;;;;7.80;3.20;;;35.10;69.20;;;;;;4954723;28;20081;-62
2022/08/03 07:02:46;;;;;;;6.45;3.10;;;35.20;70.20;;;;;;4955161;29;20110;-63
2022/08/03 07:05:12;;;;;;;12.45;3.50;;;35.40;69.30;;;;;;4956349;28;20105;-62
2022/08/03 07:07:39;;;;;;;5.47;3.22;;;35.70;68.70;;;;;;4955993;28;20386;-63
2022/08/03 07:10:06;;;;;;;4.38;3.22;;;36.50;67.80;;;;;;4955924;28;20042;-63
2022/08/03 07:12:32;;;;;;;8.25;3.88;;;37.50;65.90;;;;;;4955361;29;20062;-64
2022/08/03 07:14:59;;;;;;;5.00;3.50;;;36.80;65.30;;;;;;4954606;29;20266;-61
2022/08/03 07:17:25;;;;;;;4.85;3.22;;;37.90;64.20;;;;;;4955850;28;20034;-61
2022/08/03 07:19:51;;;;;;;6.55;3.22;;;38.40;62.40;;;;;;4954337;29;20023;-61
2022/08/03 07:22:16;;;;;;;4.05;3.50;;;39.20;62.10;;;;;;4955797;28;20023;-58
2022/08/03 07:24:42;;;;;;;2.88;2.60;;;39.70;59.30;;;;;;4954447;29;20479;-60
2022/08/03 07:27:08;;;;;;;7.78;3.10;;;39.10;60.50;;;;;;4954495;29;20188;-61
2022/08/03 07:29:35;;;;;;;6.18;3.35;;;39.60;59.00;;;;;;4954332;29;20027;-61
2022/08/03 07:32:04;;;;;;;2.72;2.50;;;40.90;57.30;;;;;;4954404;29;20064;-61
2022/08/03 07:34:30;;;;;;;3.97;2.50;;;41.60;56.40;;;;;;4955408;29;20034;-62
2022/08/03 07:36:56;;;;;;;5.95;3.20;;;42.20;55.30;;;;;;4954520;28;20027;-61
2022/08/03 07:39:22;;;;;;;5.28;2.25;;;42.90;54.40;;;;;;4955374;28;20050;-61
2022/08/03 07:41:50;;;;;;;2.35;2.13;;;43.00;49.90;;;;;;4955156;28;20062;-62
2022/08/03 07:44:17;;;;;;;1.90;1.80;;;42.80;50.70;;;;;;4955386;28;20557;-61
2022/08/03 07:46:42;;;;;;;2.35;1.90;;;42.00;47.80;;;;;;4955915;28;20015;-59
2022/08/03 07:49:08;;;;;;;2.50;2.10;;;41.20;49.00;;;;;;4955527;28;20031;-61
2022/08/03 07:51:34;;;;;;;1.75;1.65;;;41.50;50.30;;;;;;4954397;29;20038;-61
2022/08/03 07:54:00;;;;;;;3.22;2.25;;;41.40;47.60;;;;;;4955293;28;20034;-59
2022/08/03 07:56:25;;;;;;;2.33;1.65;;;40.60;48.30;;;;;;4954382;29;20086;-61
2022/08/03 07:58:52;;;;;;;4.18;2.00;;;40.90;49.30;;;;;;4953958;29;20023;-59
2022/08/03 08:01:18;;;;;;;1.92;1.70;;;40.30;48.30;;;;;;4955514;28;20034;-61
2022/08/03 08:03:45;;;;;;;2.53;1.88;;;40.60;48.40;;;;;;4957756;29;20019;-61
2022/08/03 08:06:11;;;;;;;4.88;2.13;;;40.70;48.60;;;;;;4957999;29;20027;-61
2022/08/03 08:08:37;;;;;;;2.83;2.03;;;41.70;48.30;;;;;;4959254;28;20023;-61
2022/08/03 08:11:21;;;;;;;5.25;1.67;;;42.50;47.80;;;;;;4959036;28;20038;-61
2022/08/03 08:13:46;;;;;;;3.35;1.85;;;43.00;45.60;;;;;;4959200;28;20027;-61
2022/08/03 08:16:12;;;;;;;3.53;1.38;;;42.00;46.90;;;;;;4959086;28;20038;-62
2022/08/03 08:18:37;;;;;;;3.13;1.88;;;42.80;45.10;;;;;;4957735;29;20110;-61
2022/08/03 08:21:03;;;;;;;3.22;2.28;;;42.40;45.60;;;;;;4957659;29;20102;-61
2022/08/03 08:23:28;;;;;;;1.95;1.75;;;43.20;44.90;;;;;;4957612;29;20115;-61
2022/08/03 08:25:54;;;;;;;3.08;2.13;;;42.20;45.20;;;;;;4958027;29;20023;-61
2022/08/03 08:28:21;;;;;;;2.22;2.05;;;41.90;45.50;;;;;;4957634;29;20070;-61
2022/08/03 08:30:47;;;;;;;2.95;1.70;;;41.70;46.00;;;;;;4957562;29;20031;-62
2022/08/03 08:33:13;;;;;;;2.00;1.90;;;42.20;45.50;;;;;;4957865;29;20030;-61
2022/08/03 08:35:39;;;;;;;3.65;1.90;;;42.80;46.00;;;;;;4958667;28;20110;-60
2022/08/03 08:38:05;;;;;;;6.05;2.00;;;43.70;44.40;;;;;;4958646;28;20091;-58
2022/08/03 08:40:30;;;;;;;5.47;1.70;;;44.50;43.10;;;;;;4957274;29;20027;-59
2022/08/03 08:42:56;;;;;;;8.63;2.10;;;44.60;43.40;;;;;;4957668;29;20060;-61
2022/08/03 08:45:22;;;;;;;4.30;2.28;;;44.70;42.50;;;;;;4957294;29;20027;-62
2022/08/03 08:47:49;;;;;;;7.60;2.38;;;44.80;42.90;;;;;;4957279;29;20486;-61
2022/08/03 08:50:19;;;;;;;5.38;2.10;;;44.40;42.50;;;;;;4958339;28;20039;-61
2022/08/03 08:52:49;;;;;;;3.10;1.90;;;44.10;43.50;;;;;;4957649;29;20027;-62
2022/08/03 08:55:19;;;;;;;6.40;2.55;;;44.80;42.80;;;;;;4957514;29;20025;-61
2022/08/03 08:57:51;;;;;;;2.60;2.20;;;44.10;42.60;;;;;;4958271;28;20553;-61
2022/08/03 09:00:17;;;;;;;5.88;2.28;;;43.20;42.80;;;;;;4956843;28;20038;-61
2022/08/03 09:02:44;;;;;;;3.92;1.70;;;43.00;42.90;;;;;;4956979;28;20023;-61
2022/08/03 09:05:16;;;;;;;2.88;2.28;;;42.70;44.40;;;;;;4957050;29;20028;-61
2022/08/03 09:07:42;;;;;;;3.80;1.85;;;43.50;43.50;;;;;;4957156;28;20023;-60
2022/08/03 09:10:10;;;;;;;5.38;1.75;;;43.60;43.30;;;;;;4958018;28;20085;-61
2022/08/03 09:12:44;;;;;;;5.82;2.15;;;41.70;43.70;;;;;;4957825;28;20024;-60
2022/08/03 09:15:24;;;;;;;3.50;1.77;;;41.30;44.20;;;;;;4957955;28;20023;-61
2022/08/03 09:17:55;;;;;;;3.17;1.80;;;40.70;44.80;;;;;;4956750;29;20027;-61
2022/08/03 09:20:22;;;;;;;1.55;1.38;;;40.70;44.50;;;;;;4957145;28;20027;-61
2022/08/03 09:22:55;;;;;;;2.28;1.75;;;40.50;46.30;;;;;;4956711;29;20478;-61
2022/08/03 09:25:27;;;;;;;2.53;1.50;;;41.80;44.50;;;;;;4956569;29;20410;-60
2022/08/03 09:27:53;;;;;;;2.70;1.75;;;42.30;44.20;;;;;;4956787;29;20027;-59
2022/08/03 09:30:19;;;;;;;6.30;1.70;;;43.10;43.70;;;;;;4956397;29;20031;-60
2022/08/03 09:32:45;;;;;;;2.03;1.48;;;43.50;42.30;;;;;;4957907;28;20048;-61
2022/08/03 09:35:12;;;;;;;6.40;1.83;;;43.90;42.20;;;;;;4957577;28;20032;-60
2022/08/03 09:37:38;;;;;;;3.38;2.13;;;44.20;42.60;;;;;;4956288;29;20042;-60
2022/08/03 09:40:05;;;;;;;1.98;1.77;;;44.80;42.90;;;;;;4956141;29;20027;-61
2022/08/03 09:42:34;;;;;;;2.90;1.70;;;44.70;41.20;;;;;;4956569;29;20027;-61
2022/08/03 09:44:59;;;;;;;3.92;2.05;;;43.10;42.50;;;;;;4956568;28;20042;-61
2022/08/03 09:47:32;;;;;;;2.10;1.90;;;43.50;42.70;;;;;;4956169;29;20027;-61
2022/08/03 09:50:08;;;;;;;2.33;2.13;;;43.30;42.60;;;;;;4957195;28;20059;-61
2022/08/03 09:52:37;;;;;;;1.80;1.70;;;43.80;42.00;;;;;;4956182;29;20055;-59
2022/08/03 09:55:11;;;;;;;2.08;1.92;;;43.80;41.70;;;;;;4956382;28;20466;-61
2022/08/03 09:57:39;;;;;;;2.53;2.00;;;44.20;40.90;;;;;;4957608;28;20031;-61
2022/08/03 10:00:16;;;;;;;2.83;2.00;;;44.10;41.70;;;;;;4955809;29;20490;-60
2022/08/03 10:02:43;;;;;;;2.10;1.85;;;44.10;41.40;;;;;;4957238;28;20015;-61
2022/08/03 10:05:11;;;;;;;1.92;1.80;;;44.40;41.80;;;;;;4957177;28;20042;-61
2022/08/03 10:07:45;;;;;;;2.00;1.90;;;45.10;41.90;;;;;;4956409;29;20029;-59
2022/08/03 10:10:11;;;;;;;2.33;2.13;;;46.30;41.00;;;;;;4956044;29;20556;-61
2022/08/03 10:12:39;;;;;;;2.10;2.00;;;47.40;41.00;;;;;;4957191;28;20039;-60
2022/08/03 10:15:05;;;;;;;4.13;2.03;;;48.10;39.20;;;;;;4956412;29;20031;-61
2022/08/03 10:17:31;;;;;;;5.90;1.98;;;48.10;39.00;;;;;;4955687;29;20031;-59
2022/08/03 10:19:57;;;;;;;4.45;2.30;;;47.30;39.30;;;;;;4955754;29;20035;-61
2022/08/03 10:22:30;;;;;;;2.03;1.90;;;47.30;39.40;;;;;;4956903;28;20383;-60
2022/08/03 10:24:59;;;;;;;3.67;2.22;;;47.30;40.00;;;;;;4954919;28;20023;-60
2022/08/03 10:27:26;;;;;;;3.88;3.47;;;48.10;39.60;;;;;;4955427;29;20020;-61
2022/08/03 10:29:55;;;;;;;4.82;3.17;;;47.60;38.60;;;;;;4955673;29;20035;-61
2022/08/03 10:32:27;;;;;;;6.38;2.30;;;47.20;39.10;;;;;;4955941;29;20019;-61
2022/08/03 10:35:10;;;;;;;4.93;2.08;;;46.30;39.50;;;;;;4955406;29;20091;-61
2022/08/03 10:37:44;;;;;;;2.33;1.85;;;45.80;40.30;;;;;;4956826;28;20024;-61
2022/08/03 10:40:18;;;;;;;4.40;1.80;;;45.10;40.10;;;;;;4956396;28;20023;-60
2022/08/03 10:42:45;;;;;;;4.13;1.90;;;43.80;41.50;;;;;;4956445;28;20030;-59
2022/08/03 10:45:27;;;;;;;4.85;1.90;;;42.20;41.50;;;;;;4955199;29;20070;-60
2022/08/03 10:47:55;;;;;;;4.20;1.80;;;40.20;43.50;;;;;;4955113;29;20063;-60
2022/08/03 10:50:23;;;;;;;4.30;1.80;;;38.50;44.90;;;;;;4955233;29;20482;-60
2022/08/03 10:52:57;;;;;;;1.95;1.58;;;37.80;45.90;;;;;;4956516;28;20038;-62
2022/08/03 10:58:37;;;;;;;2.45;1.75;;;37.70;47.00;;;;;;4956585;29;20034;-61
2022/08/03 11:01:08;;;;;;;2.28;1.80;;;37.60;46.90;;;;;;4954709;29;20074;-62
2022/08/03 11:03:54;;;;;;;2.60;1.50;;;37.20;46.70;;;;;;4956312;28;20027;-63
2022/08/03 11:06:23;;;;;;;5.07;1.77;;;36.80;46.90;;;;;;4955818;29;20027;-61
2022/08/03 11:09:08;;;;;;;4.28;2.05;;;35.80;47.90;;;;;;4954876;29;20459;-61
2022/08/03 11:11:35;;;;;;;2.00;1.80;;;35.50;50.60;;;;;;4954565;29;20433;-59
2022/08/03 11:14:03;;;;;;;6.20;1.80;;;35.50;49.40;;;;;;4955875;28;20089;-62
2022/08/03 11:16:36;;;;;;;8.35;2.20;;;35.40;48.90;;;;;;4954635;29;20043;-59
2022/08/03 11:19:05;;;;;;;5.53;1.88;;;34.50;50.50;;;;;;4954527;29;20059;-60
2022/08/03 11:21:49;;;;;;;2.75;1.70;;;34.10;50.70;;;;;;4954493;29;20475;-59
2022/08/03 11:24:37;;;;;;;6.00;1.98;;;33.50;51.70;;;;;;4955950;28;20525;-60
2022/08/03 11:27:15;;;;;;;1.70;1.60;;;33.20;52.00;;;;;;4955865;28;20102;-60
2022/08/03 11:30:02;;;;;;;2.75;1.48;;;33.10;52.60;;;;;;4955861;28;20550;-59
2022/08/03 11:32:37;;;;;;;4.53;1.95;;;33.10;53.10;;;;;;4955606;29;20081;-62
2022/08/03 11:35:44;;;;;;;2.15;1.65;;;33.00;52.00;;;;;;4954525;29;20055;-60
2022/08/03 11:38:10;;;;;;;3.15;1.85;;;33.10;52.20;;;;;;4946832;29;20035;-61
2022/08/03 11:40:46;;;;;;;2.65;1.30;;;33.00;52.60;;;;;;4955398;29;20382;-62
2022/08/03 11:43:20;;;;;;;3.63;1.80;;;32.90;52.90;;;;;;4955787;28;20020;-59
2022/08/03 11:46:04;;;;;;;2.10;1.52;;;33.00;53.20;;;;;;4954162;29;20417;-62
2022/08/03 11:48:32;;;;;;;4.25;1.70;;;33.20;52.60;;;;;;4954133;29;20508;-58
2022/08/03 11:50:59;;;;;;;3.38;1.65;;;33.00;52.60;;;;;;4954456;29;20035;-60
2022/08/03 11:53:26;;;;;;;1.98;1.77;;;32.80;53.40;;;;;;4954027;29;20031;-62
2022/08/03 11:55:52;;;;;;;3.65;1.77;;;32.60;53.60;;;;;;4955520;28;20027;-62
2022/08/03 11:58:20;;;;;;;5.25;1.80;;;32.60;53.20;;;;;;4955450;28;20023;-62
2022/08/03 12:00:46;;;;;;;4.97;1.90;;;32.70;54.30;;;;;;4955248;28;20035;-61
2022/08/03 12:03:14;;;;;;;3.00;1.70;;;33.00;53.50;;;;;;4954029;28;20024;-62
2022/08/03 12:05:49;;;;;;;3.28;1.90;;;33.20;53.60;;;;;;4955131;28;20019;-62
2022/08/03 12:08:27;;;;;;;4.05;2.10;;;33.00;52.80;;;;;;4953984;29;20023;-61
2022/08/03 12:10:54;;;;;;;3.72;2.03;;;32.80;53.30;;;;;;4953938;29;20038;-62
2022/08/03 12:13:22;;;;;;;1.60;1.50;;;32.60;53.40;;;;;;4954126;29;20031;-62
2022/08/03 12:15:52;;;;;;;4.20;1.90;;;32.40;53.30;;;;;;4954718;29;20031;-62
2022/08/03 12:18:19;;;;;;;10.07;2.47;;;32.30;53.70;;;;;;4953834;29;20046;-62
2022/08/03 12:20:46;;;;;;;1.83;1.60;;;32.30;54.00;;;;;;4955089;28;20023;-60
2022/08/03 12:23:12;;;;;;;2.03;1.70;;;32.30;54.00;;;;;;4953912;28;20027;-62
2022/08/03 12:25:40;;;;;;;8.80;3.08;;;32.40;54.30;;;;;;4953866;29;20027;-62
2022/08/03 12:28:15;;;;;;;3.42;1.63;;;32.20;54.00;;;;;;4954942;28;20078;-60
2022/08/03 12:30:42;;;;;;;3.47;1.70;;;32.20;54.60;;;;;;4955049;28;20027;-62
2022/08/03 12:33:19;;;;;;;4.30;2.00;;;32.30;53.80;;;;;;4953839;28;20027;-62
2022/08/03 12:35:46;;;;;;;3.03;1.70;;;32.40;54.80;;;;;;4955308;28;20027;-62
2022/08/03 12:38:12;;;;;;;2.00;1.70;;;32.60;55.00;;;;;;4953958;29;20034;-62
2022/08/03 12:40:39;;;;;;;2.78;1.70;;;32.60;53.40;;;;;;4953637;29;20455;-61
2022/08/03 12:43:13;;;;;;;2.03;1.77;;;32.60;53.90;;;;;;4953997;29;20406;-62
2022/08/03 12:45:39;;;;;;;2.72;1.58;;;32.60;53.50;;;;;;4953611;29;20027;-62
2022/08/03 12:48:09;;;;;;;1.83;1.73;;;32.70;53.70;;;;;;4954729;28;20079;-62
2022/08/03 12:50:36;;;;;;;3.92;1.58;;;32.80;53.60;;;;;;4958288;28;20039;-62
2022/08/03 12:53:05;;;;;;;2.63;1.55;;;32.80;53.40;;;;;;4958455;28;20031;-66
2022/08/03 12:55:34;;;;;;;1.73;1.63;;;32.50;53.90;;;;;;4958408;28;20482;-64
2022/08/03 12:58:00;;;;;;;3.10;1.77;;;32.50;53.90;;;;;;4957070;29;20035;-63
2022/08/03 13:00:26;;;;;;;2.60;1.63;;;32.40;53.90;;;;;;4958252;28;20110;-64
2022/08/03 13:03:01;;;;;;;3.15;1.85;;;32.30;53.70;;;;;;4957282;28;20071;-64